sensor_id;sensor_type;location;lat;lon;timestamp;P1;durP1;ratioP1;P2;durP2;ratioP2
8319;SDS011;4197;42.130;24.746;2023-05-07T00:00:46;9.13;;;6.80;;
8319;SDS011;4197;42.130;24.746;2023-05-07T00:03:14;8.87;;;7.60;;
8319;SDS011;4197;42.130;24.746;2023-05-07T00:05:43;12.80;;;7.97;;
8319;SDS011;4197;42.130;24.746;2023-05-07T00:08:11;8.93;;;7.07;;
8319;SDS011;4197;42.130;24.746;2023-05-07T00:10:39;10.50;;;7.73;;
8319;SDS011;4197;42.130;24.746;2023-05-07T00:13:07;9.23;;;6.70;;
8319;SDS011;4197;42.130;24.746;2023-05-07T00:15:35;10.67;;;7.60;;
8319;SDS011;4197;42.130;24.746;2023-05-07T00:18:05;11.47;;;7.77;;
8319;SDS011;4197;42.130;24.746;2023-05-07T00:20:33;12.13;;;7.40;;
8319;SDS011;4197;42.130;24.746;2023-05-07T00:23:02;10.67;;;7.20;;
8319;SDS011;4197;42.130;24.746;2023-05-07T00:25:30;8.40;;;6.77;;
8319;SDS011;4197;42.130;24.746;2023-05-07T00:27:58;7.53;;;6.73;;
8319;SDS011;4197;42.130;24.746;2023-05-07T00:30:30;7.90;;;6.47;;
8319;SDS011;4197;42.130;24.746;2023-05-07T00:32:58;7.73;;;6.30;;
8319;SDS011;4197;42.130;24.746;2023-05-07T00:35:27;7.23;;;6.43;;
8319;SDS011;4197;42.130;24.746;2023-05-07T00:37:56;10.03;;;6.87;;
8319;SDS011;4197;42.130;24.746;2023-05-07T00:40:25;8.67;;;6.50;;
8319;SDS011;4197;42.130;24.746;2023-05-07T00:42:53;11.83;;;6.33;;
8319;SDS011;4197;42.130;24.746;2023-05-07T00:45:25;8.03;;;6.10;;
8319;SDS011;4197;42.130;24.746;2023-05-07T00:47:55;9.27;;;6.37;;
8319;SDS011;4197;42.130;24.746;2023-05-07T00:50:25;6.77;;;5.80;;
8319;SDS011;4197;42.130;24.746;2023-05-07T00:52:56;9.07;;;6.53;;
8319;SDS011;4197;42.130;24.746;2023-05-07T00:55:24;11.70;;;6.60;;
8319;SDS011;4197;42.130;24.746;2023-05-07T00:57:53;9.33;;;6.70;;
8319;SDS011;4197;42.130;24.746;2023-05-07T01:00:21;7.03;;;6.20;;
8319;SDS011;4197;42.130;24.746;2023-05-07T01:02:51;9.47;;;6.47;;
8319;SDS011;4197;42.130;24.746;2023-05-07T01:05:20;8.83;;;6.03;;
8319;SDS011;4197;42.130;24.746;2023-05-07T01:07:53;8.53;;;6.60;;
8319;SDS011;4197;42.130;24.746;2023-05-07T01:10:21;8.57;;;6.30;;
8319;SDS011;4197;42.130;24.746;2023-05-07T01:12:50;6.77;;;6.07;;
8319;SDS011;4197;42.130;24.746;2023-05-07T01:15:19;7.30;;;6.40;;
8319;SDS011;4197;42.130;24.746;2023-05-07T01:17:47;10.73;;;6.27;;
8319;SDS011;4197;42.130;24.746;2023-05-07T01:20:17;7.77;;;6.20;;
8319;SDS011;4197;42.130;24.746;2023-05-07T01:22:48;10.90;;;6.37;;
8319;SDS011;4197;42.130;24.746;2023-05-07T01:25:18;10.40;;;6.33;;
8319;SDS011;4197;42.130;24.746;2023-05-07T01:27:46;9.30;;;6.60;;
8319;SDS011;4197;42.130;24.746;2023-05-07T01:30:14;6.93;;;5.77;;
8319;SDS011;4197;42.130;24.746;2023-05-07T01:32:47;8.03;;;6.13;;
8319;SDS011;4197;42.130;24.746;2023-05-07T01:35:19;7.17;;;6.47;;
8319;SDS011;4197;42.130;24.746;2023-05-07T01:37:51;11.57;;;6.60;;
8319;SDS011;4197;42.130;24.746;2023-05-07T01:40:20;9.50;;;7.43;;
8319;SDS011;4197;42.130;24.746;2023-05-07T01:42:49;9.07;;;6.67;;
8319;SDS011;4197;42.130;24.746;2023-05-07T01:45:18;10.80;;;7.23;;
8319;SDS011;4197;42.130;24.746;2023-05-07T01:47:46;10.03;;;6.97;;
8319;SDS011;4197;42.130;24.746;2023-05-07T01:50:15;8.07;;;6.60;;
8319;SDS011;4197;42.130;24.746;2023-05-07T01:52:46;9.13;;;7.03;;
8319;SDS011;4197;42.130;24.746;2023-05-07T01:55:16;9.33;;;6.47;;
8319;SDS011;4197;42.130;24.746;2023-05-07T01:58:01;8.90;;;6.63;;
8319;SDS011;4197;42.130;24.746;2023-05-07T02:00:30;9.00;;;6.57;;
8319;SDS011;4197;42.130;24.746;2023-05-07T02:02:59;10.13;;;6.50;;
8319;SDS011;4197;42.130;24.746;2023-05-07T02:05:27;9.63;;;7.30;;
8319;SDS011;4197;42.130;24.746;2023-05-07T02:07:55;8.43;;;7.33;;
8319;SDS011;4197;42.130;24.746;2023-05-07T02:10:25;9.30;;;7.17;;
8319;SDS011;4197;42.130;24.746;2023-05-07T02:12:53;10.20;;;6.97;;
8319;SDS011;4197;42.130;24.746;2023-05-07T02:15:21;7.77;;;6.97;;
8319;SDS011;4197;42.130;24.746;2023-05-07T02:17:58;11.53;;;6.73;;
8319;SDS011;4197;42.130;24.746;2023-05-07T02:20:28;7.83;;;6.80;;
8319;SDS011;4197;42.130;24.746;2023-05-07T02:22:56;8.90;;;6.70;;
8319;SDS011;4197;42.130;24.746;2023-05-07T02:25:26;8.73;;;7.53;;
8319;SDS011;4197;42.130;24.746;2023-05-07T02:27:55;10.80;;;7.20;;
8319;SDS011;4197;42.130;24.746;2023-05-07T02:30:24;12.47;;;7.00;;
8319;SDS011;4197;42.130;24.746;2023-05-07T02:32:52;8.30;;;7.30;;
8319;SDS011;4197;42.130;24.746;2023-05-07T02:35:21;8.90;;;7.53;;
8319;SDS011;4197;42.130;24.746;2023-05-07T02:37:49;10.03;;;8.27;;
8319;SDS011;4197;42.130;24.746;2023-05-07T02:40:17;8.83;;;7.53;;
8319;SDS011;4197;42.130;24.746;2023-05-07T02:42:47;9.53;;;8.27;;
8319;SDS011;4197;42.130;24.746;2023-05-07T02:45:15;9.03;;;7.80;;
8319;SDS011;4197;42.130;24.746;2023-05-07T02:47:43;10.73;;;8.27;;
8319;SDS011;4197;42.130;24.746;2023-05-07T02:50:12;8.77;;;7.87;;
8319;SDS011;4197;42.130;24.746;2023-05-07T02:52:41;14.13;;;8.67;;
8319;SDS011;4197;42.130;24.746;2023-05-07T02:55:09;11.20;;;8.73;;
8319;SDS011;4197;42.130;24.746;2023-05-07T02:57:37;10.23;;;8.13;;
8319;SDS011;4197;42.130;24.746;2023-05-07T03:00:14;10.73;;;8.60;;
8319;SDS011;4197;42.130;24.746;2023-05-07T03:02:44;16.17;;;8.90;;
8319;SDS011;4197;42.130;24.746;2023-05-07T03:05:12;18.13;;;9.50;;
8319;SDS011;4197;42.130;24.746;2023-05-07T03:07:40;14.27;;;9.00;;
8319;SDS011;4197;42.130;24.746;2023-05-07T03:10:11;11.90;;;9.57;;
8319;SDS011;4197;42.130;24.746;2023-05-07T03:12:39;11.63;;;9.37;;
8319;SDS011;4197;42.130;24.746;2023-05-07T03:15:08;11.23;;;9.37;;
8319;SDS011;4197;42.130;24.746;2023-05-07T03:17:39;11.93;;;9.73;;
8319;SDS011;4197;42.130;24.746;2023-05-07T03:20:08;11.50;;;10.03;;
8319;SDS011;4197;42.130;24.746;2023-05-07T03:22:37;10.27;;;9.10;;
8319;SDS011;4197;42.130;24.746;2023-05-07T03:25:06;14.50;;;10.73;;
8319;SDS011;4197;42.130;24.746;2023-05-07T03:27:36;13.53;;;10.27;;
8319;SDS011;4197;42.130;24.746;2023-05-07T03:30:05;12.07;;;9.83;;
8319;SDS011;4197;42.130;24.746;2023-05-07T03:32:35;14.33;;;11.73;;
8319;SDS011;4197;42.130;24.746;2023-05-07T03:35:05;13.83;;;11.50;;
8319;SDS011;4197;42.130;24.746;2023-05-07T03:37:34;11.33;;;9.93;;
8319;SDS011;4197;42.130;24.746;2023-05-07T03:40:02;13.33;;;9.80;;
8319;SDS011;4197;42.130;24.746;2023-05-07T03:42:30;14.13;;;10.07;;
8319;SDS011;4197;42.130;24.746;2023-05-07T03:44:59;11.77;;;10.30;;
8319;SDS011;4197;42.130;24.746;2023-05-07T03:47:27;14.03;;;10.90;;
8319;SDS011;4197;42.130;24.746;2023-05-07T03:49:55;13.73;;;10.70;;
8319;SDS011;4197;42.130;24.746;2023-05-07T03:52:25;16.53;;;10.73;;
8319;SDS011;4197;42.130;24.746;2023-05-07T03:54:53;13.60;;;10.73;;
8319;SDS011;4197;42.130;24.746;2023-05-07T03:57:21;16.57;;;10.40;;
8319;SDS011;4197;42.130;24.746;2023-05-07T03:59:50;14.90;;;9.87;;
8319;SDS011;4197;42.130;24.746;2023-05-07T04:02:18;12.13;;;9.90;;
8319;SDS011;4197;42.130;24.746;2023-05-07T04:04:48;13.43;;;9.70;;
8319;SDS011;4197;42.130;24.746;2023-05-07T04:07:16;11.73;;;9.63;;
8319;SDS011;4197;42.130;24.746;2023-05-07T04:09:45;11.73;;;8.70;;
8319;SDS011;4197;42.130;24.746;2023-05-07T04:12:14;12.13;;;8.70;;
8319;SDS011;4197;42.130;24.746;2023-05-07T04:14:43;18.43;;;8.80;;
8319;SDS011;4197;42.130;24.746;2023-05-07T04:17:11;12.20;;;9.00;;
8319;SDS011;4197;42.130;24.746;2023-05-07T04:19:39;10.67;;;8.83;;
8319;SDS011;4197;42.130;24.746;2023-05-07T04:22:12;9.80;;;8.25;;
8319;SDS011;4197;42.130;24.746;2023-05-07T04:24:40;9.57;;;8.30;;
8319;SDS011;4197;42.130;24.746;2023-05-07T04:27:11;12.75;;;8.73;;
8319;SDS011;4197;42.130;24.746;2023-05-07T04:29:39;15.60;;;8.68;;
8319;SDS011;4197;42.130;24.746;2023-05-07T04:32:09;10.30;;;7.82;;
8319;SDS011;4197;42.130;24.746;2023-05-07T04:34:38;13.32;;;8.80;;
8319;SDS011;4197;42.130;24.746;2023-05-07T04:37:06;9.68;;;8.15;;
8319;SDS011;4197;42.130;24.746;2023-05-07T04:39:36;9.63;;;8.23;;
8319;SDS011;4197;42.130;24.746;2023-05-07T04:42:04;11.45;;;8.18;;
8319;SDS011;4197;42.130;24.746;2023-05-07T04:44:35;10.98;;;8.38;;
8319;SDS011;4197;42.130;24.746;2023-05-07T04:47:03;13.68;;;7.82;;
8319;SDS011;4197;42.130;24.746;2023-05-07T04:49:32;9.63;;;7.70;;
8319;SDS011;4197;42.130;24.746;2023-05-07T04:52:00;9.57;;;7.80;;
8319;SDS011;4197;42.130;24.746;2023-05-07T04:54:29;8.32;;;7.47;;
8319;SDS011;4197;42.130;24.746;2023-05-07T04:56:58;11.93;;;8.18;;
8319;SDS011;4197;42.130;24.746;2023-05-07T04:59:26;9.75;;;8.10;;
8319;SDS011;4197;42.130;24.746;2023-05-07T05:02:13;13.82;;;8.13;;
8319;SDS011;4197;42.130;24.746;2023-05-07T05:04:45;9.85;;;7.20;;
8319;SDS011;4197;42.130;24.746;2023-05-07T05:07:14;8.63;;;7.20;;
8319;SDS011;4197;42.130;24.746;2023-05-07T05:09:59;9.00;;;7.13;;
8319;SDS011;4197;42.130;24.746;2023-05-07T05:12:29;14.40;;;8.18;;
8319;SDS011;4197;42.130;24.746;2023-05-07T05:14:57;10.45;;;7.72;;
8319;SDS011;4197;42.130;24.746;2023-05-07T05:17:27;9.95;;;7.60;;
8319;SDS011;4197;42.130;24.746;2023-05-07T05:19:56;10.48;;;7.35;;
8319;SDS011;4197;42.130;24.746;2023-05-07T05:22:24;9.85;;;7.15;;
8319;SDS011;4197;42.130;24.746;2023-05-07T05:24:53;8.02;;;6.60;;
8319;SDS011;4197;42.130;24.746;2023-05-07T05:27:22;11.07;;;7.43;;
8319;SDS011;4197;42.130;24.746;2023-05-07T05:29:50;14.15;;;7.50;;
8319;SDS011;4197;42.130;24.746;2023-05-07T05:32:18;9.65;;;7.13;;
8319;SDS011;4197;42.130;24.746;2023-05-07T05:34:48;9.85;;;7.63;;
8319;SDS011;4197;42.130;24.746;2023-05-07T05:37:17;8.25;;;6.88;;
8319;SDS011;4197;42.130;24.746;2023-05-07T05:39:46;9.95;;;6.82;;
8319;SDS011;4197;42.130;24.746;2023-05-07T05:42:14;7.72;;;6.93;;
8319;SDS011;4197;42.130;24.746;2023-05-07T05:44:43;10.55;;;7.32;;
8319;SDS011;4197;42.130;24.746;2023-05-07T05:47:11;8.00;;;6.75;;
8319;SDS011;4197;42.130;24.746;2023-05-07T05:49:41;11.18;;;7.00;;
8319;SDS011;4197;42.130;24.746;2023-05-07T05:52:12;12.02;;;7.22;;
8319;SDS011;4197;42.130;24.746;2023-05-07T05:54:41;10.93;;;6.82;;
8319;SDS011;4197;42.130;24.746;2023-05-07T05:57:10;8.05;;;6.78;;
8319;SDS011;4197;42.130;24.746;2023-05-07T05:59:39;9.32;;;6.85;;
8319;SDS011;4197;42.130;24.746;2023-05-07T06:02:07;9.40;;;6.85;;
8319;SDS011;4197;42.130;24.746;2023-05-07T06:04:36;13.02;;;7.30;;
8319;SDS011;4197;42.130;24.746;2023-05-07T06:07:04;10.93;;;7.25;;
8319;SDS011;4197;42.130;24.746;2023-05-07T06:09:33;10.68;;;7.28;;
8319;SDS011;4197;42.130;24.746;2023-05-07T06:12:02;14.00;;;7.70;;
8319;SDS011;4197;42.130;24.746;2023-05-07T06:14:31;14.05;;;7.72;;
8319;SDS011;4197;42.130;24.746;2023-05-07T06:17:00;9.45;;;7.70;;
8319;SDS011;4197;42.130;24.746;2023-05-07T06:19:29;11.40;;;7.50;;
8319;SDS011;4197;42.130;24.746;2023-05-07T06:21:57;9.48;;;7.40;;
8319;SDS011;4197;42.130;24.746;2023-05-07T06:24:27;11.13;;;7.20;;
8319;SDS011;4197;42.130;24.746;2023-05-07T06:26:57;9.65;;;6.95;;
8319;SDS011;4197;42.130;24.746;2023-05-07T06:29:26;8.57;;;7.00;;
8319;SDS011;4197;42.130;24.746;2023-05-07T06:31:54;10.85;;;7.43;;
8319;SDS011;4197;42.130;24.746;2023-05-07T06:34:22;9.48;;;6.88;;
8319;SDS011;4197;42.130;24.746;2023-05-07T06:36:51;8.80;;;6.63;;
8319;SDS011;4197;42.130;24.746;2023-05-07T06:39:19;9.23;;;7.10;;
8319;SDS011;4197;42.130;24.746;2023-05-07T06:41:48;9.80;;;7.05;;
8319;SDS011;4197;42.130;24.746;2023-05-07T06:44:17;10.25;;;6.63;;
8319;SDS011;4197;42.130;24.746;2023-05-07T06:46:46;12.90;;;6.68;;
8319;SDS011;4197;42.130;24.746;2023-05-07T06:49:14;7.80;;;6.30;;
8319;SDS011;4197;42.130;24.746;2023-05-07T06:51:43;10.98;;;7.20;;
8319;SDS011;4197;42.130;24.746;2023-05-07T06:54:12;9.30;;;7.13;;
8319;SDS011;4197;42.130;24.746;2023-05-07T06:56:40;10.35;;;6.45;;
8319;SDS011;4197;42.130;24.746;2023-05-07T06:59:09;8.98;;;6.97;;
8319;SDS011;4197;42.130;24.746;2023-05-07T07:01:39;11.63;;;7.18;;
8319;SDS011;4197;42.130;24.746;2023-05-07T07:04:07;7.93;;;6.30;;
8319;SDS011;4197;42.130;24.746;2023-05-07T07:06:35;9.48;;;7.05;;
8319;SDS011;4197;42.130;24.746;2023-05-07T07:09:04;8.55;;;6.55;;
8319;SDS011;4197;42.130;24.746;2023-05-07T07:11:32;11.30;;;7.22;;
8319;SDS011;4197;42.130;24.746;2023-05-07T07:14:00;7.60;;;6.55;;
8319;SDS011;4197;42.130;24.746;2023-05-07T07:16:29;10.07;;;6.60;;
8319;SDS011;4197;42.130;24.746;2023-05-07T07:18:59;11.07;;;6.82;;
8319;SDS011;4197;42.130;24.746;2023-05-07T07:21:27;16.55;;;7.40;;
8319;SDS011;4197;42.130;24.746;2023-05-07T07:23:56;10.65;;;7.07;;
8319;SDS011;4197;42.130;24.746;2023-05-07T07:26:24;8.95;;;7.50;;
8319;SDS011;4197;42.130;24.746;2023-05-07T07:28:52;8.27;;;7.25;;
8319;SDS011;4197;42.130;24.746;2023-05-07T07:31:21;9.38;;;6.93;;
8319;SDS011;4197;42.130;24.746;2023-05-07T07:33:49;10.60;;;8.05;;
8319;SDS011;4197;42.130;24.746;2023-05-07T07:36:20;9.50;;;8.07;;
8319;SDS011;4197;42.130;24.746;2023-05-07T07:38:54;8.68;;;7.63;;
8319;SDS011;4197;42.130;24.746;2023-05-07T07:41:22;12.50;;;7.53;;
8319;SDS011;4197;42.130;24.746;2023-05-07T07:43:50;8.48;;;7.57;;
8319;SDS011;4197;42.130;24.746;2023-05-07T07:46:19;16.58;;;7.38;;
8319;SDS011;4197;42.130;24.746;2023-05-07T07:48:47;8.88;;;7.10;;
8319;SDS011;4197;42.130;24.746;2023-05-07T07:51:16;11.70;;;7.65;;
8319;SDS011;4197;42.130;24.746;2023-05-07T07:53:45;13.35;;;7.53;;
8319;SDS011;4197;42.130;24.746;2023-05-07T07:56:14;10.07;;;8.25;;
8319;SDS011;4197;42.130;24.746;2023-05-07T07:58:42;11.07;;;7.43;;
8319;SDS011;4197;42.130;24.746;2023-05-07T08:01:11;9.70;;;7.35;;
8319;SDS011;4197;42.130;24.746;2023-05-07T08:03:39;13.02;;;7.88;;
8319;SDS011;4197;42.130;24.746;2023-05-07T08:06:08;11.57;;;7.28;;
8319;SDS011;4197;42.130;24.746;2023-05-07T08:08:37;10.52;;;6.40;;
8319;SDS011;4197;42.130;24.746;2023-05-07T08:11:07;8.48;;;6.38;;
8319;SDS011;4197;42.130;24.746;2023-05-07T08:13:35;12.80;;;7.78;;
8319;SDS011;4197;42.130;24.746;2023-05-07T08:16:05;13.65;;;7.38;;
8319;SDS011;4197;42.130;24.746;2023-05-07T08:18:34;7.68;;;6.22;;
8319;SDS011;4197;42.130;24.746;2023-05-07T08:21:03;7.68;;;5.75;;
8319;SDS011;4197;42.130;24.746;2023-05-07T08:23:31;6.03;;;5.30;;
8319;SDS011;4197;42.130;24.746;2023-05-07T08:26:00;12.02;;;5.68;;
8319;SDS011;4197;42.130;24.746;2023-05-07T08:28:30;11.45;;;5.65;;
8319;SDS011;4197;42.130;24.746;2023-05-07T08:30:58;9.38;;;5.57;;
8319;SDS011;4197;42.130;24.746;2023-05-07T08:33:27;9.00;;;4.20;;
8319;SDS011;4197;42.130;24.746;2023-05-07T08:35:55;5.68;;;4.85;;
8319;SDS011;4197;42.130;24.746;2023-05-07T08:38:24;7.03;;;4.63;;
8319;SDS011;4197;42.130;24.746;2023-05-07T08:40:53;9.20;;;5.45;;
8319;SDS011;4197;42.130;24.746;2023-05-07T08:43:21;9.02;;;5.00;;
8319;SDS011;4197;42.130;24.746;2023-05-07T08:45:53;7.03;;;5.45;;
8319;SDS011;4197;42.130;24.746;2023-05-07T08:48:25;11.23;;;6.28;;
8319;SDS011;4197;42.130;24.746;2023-05-07T08:50:55;6.63;;;4.60;;
8319;SDS011;4197;42.130;24.746;2023-05-07T08:53:26;11.52;;;5.55;;
8319;SDS011;4197;42.130;24.746;2023-05-07T08:55:54;6.38;;;4.85;;
8319;SDS011;4197;42.130;24.746;2023-05-07T08:58:22;11.10;;;5.30;;
8319;SDS011;4197;42.130;24.746;2023-05-07T09:00:52;4.63;;;4.22;;
8319;SDS011;4197;42.130;24.746;2023-05-07T09:03:21;7.68;;;4.50;;
8319;SDS011;4197;42.130;24.746;2023-05-07T09:05:50;8.23;;;4.53;;
8319;SDS011;4197;42.130;24.746;2023-05-07T09:08:18;4.45;;;3.47;;
8319;SDS011;4197;42.130;24.746;2023-05-07T09:10:46;6.50;;;3.60;;
8319;SDS011;4197;42.130;24.746;2023-05-07T09:13:16;7.25;;;3.42;;
8319;SDS011;4197;42.130;24.746;2023-05-07T09:15:44;5.15;;;3.15;;
8319;SDS011;4197;42.130;24.746;2023-05-07T09:18:14;5.35;;;3.08;;
8319;SDS011;4197;42.130;24.746;2023-05-07T09:20:43;7.22;;;3.70;;
8319;SDS011;4197;42.130;24.746;2023-05-07T09:23:11;8.77;;;3.58;;
8319;SDS011;4197;42.130;24.746;2023-05-07T09:25:39;5.13;;;2.80;;
8319;SDS011;4197;42.130;24.746;2023-05-07T09:28:08;2.80;;;2.50;;
8319;SDS011;4197;42.130;24.746;2023-05-07T09:30:37;4.75;;;2.92;;
8319;SDS011;4197;42.130;24.746;2023-05-07T09:33:05;8.85;;;3.75;;
8319;SDS011;4197;42.130;24.746;2023-05-07T09:35:35;6.78;;;3.70;;
8319;SDS011;4197;42.130;24.746;2023-05-07T09:38:05;6.78;;;2.95;;
8319;SDS011;4197;42.130;24.746;2023-05-07T09:40:34;4.80;;;3.55;;
8319;SDS011;4197;42.130;24.746;2023-05-07T09:43:08;7.38;;;3.30;;
8319;SDS011;4197;42.130;24.746;2023-05-07T09:45:38;5.55;;;3.05;;
8319;SDS011;4197;42.130;24.746;2023-05-07T09:48:06;7.38;;;3.42;;
8319;SDS011;4197;42.130;24.746;2023-05-07T09:50:39;5.38;;;3.30;;
8319;SDS011;4197;42.130;24.746;2023-05-07T09:53:11;5.85;;;3.50;;
8319;SDS011;4197;42.130;24.746;2023-05-07T09:55:42;4.50;;;3.17;;
8319;SDS011;4197;42.130;24.746;2023-05-07T09:58:11;5.43;;;3.05;;
8319;SDS011;4197;42.130;24.746;2023-05-07T10:00:40;10.27;;;3.95;;
8319;SDS011;4197;42.130;24.746;2023-05-07T10:03:10;11.85;;;4.10;;
8319;SDS011;4197;42.130;24.746;2023-05-07T10:05:41;4.53;;;2.95;;
8319;SDS011;4197;42.130;24.746;2023-05-07T10:08:10;8.32;;;3.78;;
8319;SDS011;4197;42.130;24.746;2023-05-07T10:10:40;4.10;;;3.30;;
8319;SDS011;4197;42.130;24.746;2023-05-07T10:13:09;5.88;;;3.30;;
8319;SDS011;4197;42.130;24.746;2023-05-07T10:15:38;5.05;;;3.13;;
8319;SDS011;4197;42.130;24.746;2023-05-07T10:18:07;7.55;;;3.75;;
8319;SDS011;4197;42.130;24.746;2023-05-07T10:20:38;7.13;;;2.97;;
8319;SDS011;4197;42.130;24.746;2023-05-07T10:23:12;13.73;;;3.83;;
8319;SDS011;4197;42.130;24.746;2023-05-07T10:25:42;6.25;;;3.70;;
8319;SDS011;4197;42.130;24.746;2023-05-07T10:28:10;11.52;;;3.88;;
8319;SDS011;4197;42.130;24.746;2023-05-07T10:30:44;8.30;;;3.70;;
8319;SDS011;4197;42.130;24.746;2023-05-07T10:33:28;4.15;;;3.45;;
8319;SDS011;4197;42.130;24.746;2023-05-07T10:35:59;3.17;;;2.78;;
8319;SDS011;4197;42.130;24.746;2023-05-07T10:38:34;6.35;;;3.45;;
8319;SDS011;4197;42.130;24.746;2023-05-07T10:41:06;5.38;;;3.45;;
8319;SDS011;4197;42.130;24.746;2023-05-07T10:43:39;8.98;;;3.28;;
8319;SDS011;4197;42.130;24.746;2023-05-07T10:46:09;4.28;;;3.22;;
8319;SDS011;4197;42.130;24.746;2023-05-07T10:51:40;8.60;;;3.10;;
8319;SDS011;4197;42.130;24.746;2023-05-07T10:54:22;7.93;;;3.35;;
8319;SDS011;4197;42.130;24.746;2023-05-07T10:56:53;6.93;;;2.88;;
8319;SDS011;4197;42.130;24.746;2023-05-07T10:59:34;4.43;;;3.10;;
8319;SDS011;4197;42.130;24.746;2023-05-07T11:02:11;7.35;;;2.97;;
8319;SDS011;4197;42.130;24.746;2023-05-07T11:04:40;7.40;;;3.55;;
8319;SDS011;4197;42.130;24.746;2023-05-07T11:07:23;6.03;;;2.90;;
8319;SDS011;4197;42.130;24.746;2023-05-07T11:10:07;5.80;;;2.85;;
8319;SDS011;4197;42.130;24.746;2023-05-07T11:15:37;5.53;;;2.83;;
8319;SDS011;4197;42.130;24.746;2023-05-07T11:18:08;3.30;;;2.75;;
8319;SDS011;4197;42.130;24.746;2023-05-07T11:20:51;4.50;;;2.78;;
8319;SDS011;4197;42.130;24.746;2023-05-07T11:26:44;6.20;;;2.85;;
8319;SDS011;4197;42.130;24.746;2023-05-07T11:29:14;3.85;;;2.50;;
8319;SDS011;4197;42.130;24.746;2023-05-07T11:31:50;4.22;;;2.40;;
8319;SDS011;4197;42.130;24.746;2023-05-07T11:34:22;5.07;;;2.92;;
8319;SDS011;4197;42.130;24.746;2023-05-07T11:36:54;4.80;;;2.90;;
8319;SDS011;4197;42.130;24.746;2023-05-07T11:39:27;2.92;;;2.63;;
8319;SDS011;4197;42.130;24.746;2023-05-07T11:42:04;7.53;;;2.88;;
8319;SDS011;4197;42.130;24.746;2023-05-07T11:44:42;3.33;;;2.90;;
8319;SDS011;4197;42.130;24.746;2023-05-07T11:47:16;5.00;;;2.67;;
8319;SDS011;4197;42.130;24.746;2023-05-07T11:49:46;3.40;;;2.85;;
8319;SDS011;4197;42.130;24.746;2023-05-07T11:52:15;3.30;;;2.80;;
8319;SDS011;4197;42.130;24.746;2023-05-07T11:54:48;4.25;;;2.92;;
8319;SDS011;4197;42.130;24.746;2023-05-07T11:57:19;5.43;;;3.20;;
8319;SDS011;4197;42.130;24.746;2023-05-07T11:59:47;8.20;;;3.15;;
8319;SDS011;4197;42.130;24.746;2023-05-07T12:02:20;8.05;;;3.80;;
8319;SDS011;4197;42.130;24.746;2023-05-07T12:04:51;3.53;;;2.72;;
8319;SDS011;4197;42.130;24.746;2023-05-07T12:07:20;4.93;;;3.25;;
8319;SDS011;4197;42.130;24.746;2023-05-07T12:09:49;6.40;;;3.10;;
8319;SDS011;4197;42.130;24.746;2023-05-07T12:12:20;7.78;;;3.63;;
8319;SDS011;4197;42.130;24.746;2023-05-07T12:14:48;7.43;;;3.42;;
8319;SDS011;4197;42.130;24.746;2023-05-07T12:17:17;4.18;;;3.35;;
8319;SDS011;4197;42.130;24.746;2023-05-07T12:19:46;4.70;;;3.00;;
8319;SDS011;4197;42.130;24.746;2023-05-07T12:22:15;6.85;;;3.05;;
8319;SDS011;4197;42.130;24.746;2023-05-07T12:24:43;7.53;;;4.50;;
8319;SDS011;4197;42.130;24.746;2023-05-07T12:27:14;5.93;;;4.05;;
8319;SDS011;4197;42.130;24.746;2023-05-07T12:29:45;9.07;;;2.97;;
8319;SDS011;4197;42.130;24.746;2023-05-07T12:32:14;13.85;;;3.50;;
8319;SDS011;4197;42.130;24.746;2023-05-07T12:34:44;4.95;;;2.58;;
8319;SDS011;4197;42.130;24.746;2023-05-07T12:37:13;6.10;;;3.17;;
8319;SDS011;4197;42.130;24.746;2023-05-07T12:39:44;4.75;;;3.03;;
8319;SDS011;4197;42.130;24.746;2023-05-07T12:42:15;3.35;;;2.97;;
8319;SDS011;4197;42.130;24.746;2023-05-07T12:44:46;5.72;;;2.80;;
8319;SDS011;4197;42.130;24.746;2023-05-07T12:47:14;3.42;;;2.78;;
8319;SDS011;4197;42.130;24.746;2023-05-07T12:49:43;6.63;;;2.90;;
8319;SDS011;4197;42.130;24.746;2023-05-07T12:52:13;5.28;;;2.90;;
8319;SDS011;4197;42.130;24.746;2023-05-07T12:54:41;6.20;;;2.90;;
8319;SDS011;4197;42.130;24.746;2023-05-07T12:57:09;3.03;;;2.50;;
8319;SDS011;4197;42.130;24.746;2023-05-07T12:59:39;7.53;;;3.13;;
8319;SDS011;4197;42.130;24.746;2023-05-07T13:02:10;4.63;;;2.60;;
8319;SDS011;4197;42.130;24.746;2023-05-07T13:04:38;3.45;;;3.00;;
8319;SDS011;4197;42.130;24.746;2023-05-07T13:07:07;3.10;;;2.80;;
8319;SDS011;4197;42.130;24.746;2023-05-07T13:09:35;5.88;;;2.53;;
8319;SDS011;4197;42.130;24.746;2023-05-07T13:12:04;4.10;;;2.65;;
8319;SDS011;4197;42.130;24.746;2023-05-07T13:14:33;5.50;;;3.38;;
8319;SDS011;4197;42.130;24.746;2023-05-07T13:17:01;3.50;;;2.92;;
8319;SDS011;4197;42.130;24.746;2023-05-07T13:19:31;4.68;;;2.33;;
8319;SDS011;4197;42.130;24.746;2023-05-07T13:21:59;8.45;;;3.20;;
8319;SDS011;4197;42.130;24.746;2023-05-07T13:24:28;12.57;;;3.03;;
8319;SDS011;4197;42.130;24.746;2023-05-07T13:26:57;7.78;;;2.78;;
8319;SDS011;4197;42.130;24.746;2023-05-07T13:29:25;4.57;;;2.58;;
8319;SDS011;4197;42.130;24.746;2023-05-07T13:31:56;3.78;;;2.88;;
8319;SDS011;4197;42.130;24.746;2023-05-07T13:34:25;5.80;;;2.67;;
8319;SDS011;4197;42.130;24.746;2023-05-07T13:36:55;5.68;;;2.53;;
8319;SDS011;4197;42.130;24.746;2023-05-07T13:39:24;4.05;;;2.40;;
8319;SDS011;4197;42.130;24.746;2023-05-07T13:41:53;4.82;;;2.60;;
8319;SDS011;4197;42.130;24.746;2023-05-07T13:44:23;3.45;;;2.90;;
8319;SDS011;4197;42.130;24.746;2023-05-07T13:46:52;3.40;;;2.60;;
8319;SDS011;4197;42.130;24.746;2023-05-07T13:49:20;4.35;;;2.85;;
8319;SDS011;4197;42.130;24.746;2023-05-07T13:51:48;3.10;;;2.47;;
8319;SDS011;4197;42.130;24.746;2023-05-07T13:54:18;4.00;;;2.88;;
8319;SDS011;4197;42.130;24.746;2023-05-07T13:56:47;4.32;;;2.58;;
8319;SDS011;4197;42.130;24.746;2023-05-07T13:59:15;4.10;;;2.65;;
8319;SDS011;4197;42.130;24.746;2023-05-07T14:01:43;6.95;;;3.08;;
8319;SDS011;4197;42.130;24.746;2023-05-07T14:04:11;6.95;;;2.42;;
8319;SDS011;4197;42.130;24.746;2023-05-07T14:06:40;10.77;;;3.13;;
8319;SDS011;4197;42.130;24.746;2023-05-07T14:09:08;3.20;;;2.30;;
8319;SDS011;4197;42.130;24.746;2023-05-07T14:11:41;3.95;;;2.33;;
8319;SDS011;4197;42.130;24.746;2023-05-07T14:14:10;6.60;;;2.70;;
8319;SDS011;4197;42.130;24.746;2023-05-07T14:16:39;5.13;;;2.50;;
8319;SDS011;4197;42.130;24.746;2023-05-07T14:19:08;5.85;;;2.40;;
8319;SDS011;4197;42.130;24.746;2023-05-07T14:21:37;5.55;;;2.65;;
8319;SDS011;4197;42.130;24.746;2023-05-07T14:24:06;2.67;;;2.10;;
8319;SDS011;4197;42.130;24.746;2023-05-07T14:26:35;6.03;;;2.50;;
8319;SDS011;4197;42.130;24.746;2023-05-07T14:29:04;3.75;;;2.22;;
8319;SDS011;4197;42.130;24.746;2023-05-07T14:31:33;2.65;;;2.20;;
8319;SDS011;4197;42.130;24.746;2023-05-07T14:34:01;4.15;;;2.10;;
8319;SDS011;4197;42.130;24.746;2023-05-07T14:36:29;2.90;;;2.20;;
8319;SDS011;4197;42.130;24.746;2023-05-07T14:38:58;5.90;;;2.60;;
8319;SDS011;4197;42.130;24.746;2023-05-07T14:41:26;3.50;;;2.00;;
8319;SDS011;4197;42.130;24.746;2023-05-07T14:43:55;3.65;;;2.58;;
8319;SDS011;4197;42.130;24.746;2023-05-07T14:46:26;8.73;;;2.95;;
8319;SDS011;4197;42.130;24.746;2023-05-07T14:48:55;6.47;;;2.70;;
8319;SDS011;4197;42.130;24.746;2023-05-07T14:51:24;3.90;;;2.80;;
8319;SDS011;4197;42.130;24.746;2023-05-07T14:53:54;4.82;;;3.03;;
8319;SDS011;4197;42.130;24.746;2023-05-07T14:56:23;6.82;;;2.95;;
8319;SDS011;4197;42.130;24.746;2023-05-07T14:58:52;11.00;;;2.80;;
8319;SDS011;4197;42.130;24.746;2023-05-07T15:01:21;4.07;;;2.63;;
8319;SDS011;4197;42.130;24.746;2023-05-07T15:03:50;3.17;;;2.45;;
8319;SDS011;4197;42.130;24.746;2023-05-07T15:06:19;5.60;;;2.28;;
8319;SDS011;4197;42.130;24.746;2023-05-07T15:08:47;4.45;;;2.47;;
8319;SDS011;4197;42.130;24.746;2023-05-07T15:11:16;10.32;;;2.35;;
8319;SDS011;4197;42.130;24.746;2023-05-07T15:13:44;2.80;;;2.38;;
8319;SDS011;4197;42.130;24.746;2023-05-07T15:16:13;5.03;;;2.03;;
8319;SDS011;4197;42.130;24.746;2023-05-07T15:18:42;4.72;;;2.60;;